sensor_id;sensor_type;location;lat;lon;timestamp;pressure;altitude;pressure_sealevel;temperature
71640;BMP280;60912;48.968;10.124;2023-12-14T00:01:15;95435.56;;;7.74
71640;BMP280;60912;48.968;10.124;2023-12-14T00:03:41;95440.88;;;7.79
71640;BMP280;60912;48.968;10.124;2023-12-14T00:06:08;95430.09;;;7.58
71640;BMP280;60912;48.968;10.124;2023-12-14T00:08:34;95438.69;;;7.55
71640;BMP280;60912;48.968;10.124;2023-12-14T00:11:08;95435.03;;;7.45
71640;BMP280;60912;48.968;10.124;2023-12-14T00:13:33;95432.47;;;7.39
71640;BMP280;60912;48.968;10.124;2023-12-14T00:15:59;95454.41;;;7.39
71640;BMP280;60912;48.968;10.124;2023-12-14T00:18:25;95446.00;;;7.45
71640;BMP280;60912;48.968;10.124;2023-12-14T00:20:51;95448.56;;;7.50
71640;BMP280;60912;48.968;10.124;2023-12-14T00:23:16;95450.38;;;7.55
71640;BMP280;60912;48.968;10.124;2023-12-14T00:25:41;95448.19;;;7.61
71640;BMP280;60912;48.968;10.124;2023-12-14T00:28:07;95455.13;;;7.62
71640;BMP280;60912;48.968;10.124;2023-12-14T00:30:32;95459.16;;;7.69
71640;BMP280;60912;48.968;10.124;2023-12-14T00:32:57;95467.00;;;7.73
71640;BMP280;60912;48.968;10.124;2023-12-14T00:35:23;95456.22;;;7.75
71640;BMP280;60912;48.968;10.124;2023-12-14T00:37:48;95471.56;;;7.78
71640;BMP280;60912;48.968;10.124;2023-12-14T00:40:13;95470.13;;;7.77
71640;BMP280;60912;48.968;10.124;2023-12-14T00:42:39;95467.19;;;7.75
71640;BMP280;60912;48.968;10.124;2023-12-14T00:45:05;95475.63;;;7.77
71640;BMP280;60912;48.968;10.124;2023-12-14T00:47:30;95477.97;;;7.80
71640;BMP280;60912;48.968;10.124;2023-12-14T00:49:55;95492.78;;;7.85
71640;BMP280;60912;48.968;10.124;2023-12-14T00:52:21;95485.66;;;7.89
71640;BMP280;60912;48.968;10.124;2023-12-14T00:54:46;95494.25;;;7.86
71640;BMP280;60912;48.968;10.124;2023-12-14T00:57:11;95495.34;;;7.83
71640;BMP280;60912;48.968;10.124;2023-12-14T00:59:37;95501.56;;;7.76
71640;BMP280;60912;48.968;10.124;2023-12-14T01:02:02;95503.75;;;7.77
71640;BMP280;60912;48.968;10.124;2023-12-14T01:04:28;95497.72;;;7.79
71640;BMP280;60912;48.968;10.124;2023-12-14T01:06:53;95512.16;;;7.79
71640;BMP280;60912;48.968;10.124;2023-12-14T01:09:18;95512.53;;;7.91
71640;BMP280;60912;48.968;10.124;2023-12-14T01:11:44;95515.09;;;7.81
71640;BMP280;60912;48.968;10.124;2023-12-14T01:14:09;95519.84;;;7.81
71640;BMP280;60912;48.968;10.124;2023-12-14T01:16:34;95522.78;;;7.83
71640;BMP280;60912;48.968;10.124;2023-12-14T01:19:00;95534.84;;;7.87
71640;BMP280;60912;48.968;10.124;2023-12-14T01:21:25;95538.28;;;7.88
71640;BMP280;60912;48.968;10.124;2023-12-14T01:23:51;95537.41;;;7.85
71640;BMP280;60912;48.968;10.124;2023-12-14T01:26:17;95548.00;;;7.89
71640;BMP280;60912;48.968;10.124;2023-12-14T01:28:43;95548.38;;;7.93
71640;BMP280;60912;48.968;10.124;2023-12-14T01:31:08;95544.56;;;7.96
71640;BMP280;60912;48.968;10.124;2023-12-14T01:33:34;95549.66;;;7.92
71640;BMP280;60912;48.968;10.124;2023-12-14T01:35:59;95556.06;;;7.87
71640;BMP280;60912;48.968;10.124;2023-12-14T01:38:25;95555.31;;;7.79
71640;BMP280;60912;48.968;10.124;2023-12-14T01:40:50;95547.63;;;7.77
71640;BMP280;60912;48.968;10.124;2023-12-14T01:43:16;95552.38;;;7.69
71640;BMP280;60912;48.968;10.124;2023-12-14T01:45:41;95556.75;;;7.72
71640;BMP280;60912;48.968;10.124;2023-12-14T01:48:06;95560.44;;;7.75
71640;BMP280;60912;48.968;10.124;2023-12-14T01:50:32;95569.38;;;7.75
71640;BMP280;60912;48.968;10.124;2023-12-14T01:52:57;95573.22;;;7.80
71640;BMP280;60912;48.968;10.124;2023-12-14T01:55:23;95567.75;;;7.80
71640;BMP280;60912;48.968;10.124;2023-12-14T01:57:48;95576.16;;;7.82
71640;BMP280;60912;48.968;10.124;2023-12-14T02:00:22;95577.63;;;7.83
71640;BMP280;60912;48.968;10.124;2023-12-14T02:02:48;95583.13;;;7.83
71640;BMP280;60912;48.968;10.124;2023-12-14T02:05:17;95588.59;;;7.75
71640;BMP280;60912;48.968;10.124;2023-12-14T02:07:42;95591.31;;;7.67
71640;BMP280;60912;48.968;10.124;2023-12-14T02:10:10;95590.41;;;7.65
71640;BMP280;60912;48.968;10.124;2023-12-14T02:12:36;95589.47;;;7.62
71640;BMP280;60912;48.968;10.124;2023-12-14T02:15:01;95588.53;;;7.60
71640;BMP280;60912;48.968;10.124;2023-12-14T02:17:26;95594.19;;;7.54
71640;BMP280;60912;48.968;10.124;2023-12-14T02:19:52;95602.25;;;7.52
71640;BMP280;60912;48.968;10.124;2023-12-14T02:22:17;95602.59;;;7.41
71640;BMP280;60912;48.968;10.124;2023-12-14T02:24:43;95608.22;;;7.43
71640;BMP280;60912;48.968;10.124;2023-12-14T02:27:08;95613.94;;;7.53
71640;BMP280;60912;48.968;10.124;2023-12-14T02:29:33;95611.22;;;7.53
71640;BMP280;60912;48.968;10.124;2023-12-14T02:31:59;95619.63;;;7.62
71640;BMP280;60912;48.968;10.124;2023-12-14T02:34:24;95621.44;;;7.60
71640;BMP280;60912;48.968;10.124;2023-12-14T02:36:50;95628.38;;;7.53
71640;BMP280;60912;48.968;10.124;2023-12-14T02:39:15;95622.91;;;7.53
71640;BMP280;60912;48.968;10.124;2023-12-14T02:41:41;95630.94;;;7.51
71640;BMP280;60912;48.968;10.124;2023-12-14T02:44:06;95625.44;;;7.51
71640;BMP280;60912;48.968;10.124;2023-12-14T02:46:31;95632.00;;;7.48
71640;BMP280;60912;48.968;10.124;2023-12-14T02:48:57;95629.25;;;7.48
71640;BMP280;60912;48.968;10.124;2023-12-14T02:51:22;95639.31;;;7.46
71640;BMP280;60912;48.968;10.124;2023-12-14T02:53:47;95650.25;;;7.38
71640;BMP280;60912;48.968;10.124;2023-12-14T02:56:13;95642.19;;;7.33
71640;BMP280;60912;48.968;10.124;2023-12-14T02:58:38;95643.81;;;7.36
71640;BMP280;60912;48.968;10.124;2023-12-14T03:01:04;95639.28;;;7.38
71640;BMP280;60912;48.968;10.124;2023-12-14T03:03:29;95646.75;;;7.30
71640;BMP280;60912;48.968;10.124;2023-12-14T03:05:55;95650.94;;;7.31
71640;BMP280;60912;48.968;10.124;2023-12-14T03:08:20;95650.03;;;7.36
71640;BMP280;60912;48.968;10.124;2023-12-14T03:10:45;95648.78;;;7.37
71640;BMP280;60912;48.968;10.124;2023-12-14T03:13:11;95655.38;;;7.42
71640;BMP280;60912;48.968;10.124;2023-12-14T03:15:36;95658.66;;;7.40
71640;BMP280;60912;48.968;10.124;2023-12-14T03:18:02;95664.53;;;7.44
71640;BMP280;60912;48.968;10.124;2023-12-14T03:20:29;95663.78;;;7.44
71640;BMP280;60912;48.968;10.124;2023-12-14T03:22:54;95662.88;;;7.49
71640;BMP280;60912;48.968;10.124;2023-12-14T03:25:19;95659.03;;;7.44
71640;BMP280;60912;48.968;10.124;2023-12-14T03:27:45;95674.00;;;7.43
71640;BMP280;60912;48.968;10.124;2023-12-14T03:30:10;95670.00;;;7.44
71640;BMP280;60912;48.968;10.124;2023-12-14T03:32:36;95674.72;;;7.36
71640;BMP280;60912;48.968;10.124;2023-12-14T03:35:01;95685.66;;;7.36
71640;BMP280;60912;48.968;10.124;2023-12-14T03:37:27;95682.94;;;7.36
71640;BMP280;60912;48.968;10.124;2023-12-14T03:39:52;95687.50;;;7.34
71640;BMP280;60912;48.968;10.124;2023-12-14T03:42:17;95687.53;;;7.41
71640;BMP280;60912;48.968;10.124;2023-12-14T03:44:43;95688.59;;;7.38
71640;BMP280;60912;48.968;10.124;2023-12-14T03:47:08;95697.53;;;7.31
71640;BMP280;60912;48.968;10.124;2023-12-14T03:49:37;95701.56;;;7.30
71640;BMP280;60912;48.968;10.124;2023-12-14T03:52:04;95712.53;;;7.30
71640;BMP280;60912;48.968;10.124;2023-12-14T03:54:29;95708.69;;;7.33
71640;BMP280;60912;48.968;10.124;2023-12-14T03:56:55;95715.84;;;7.44
71640;BMP280;60912;48.968;10.124;2023-12-14T03:59:20;95718.97;;;7.48
71640;BMP280;60912;48.968;10.124;2023-12-14T04:01:45;95717.94;;;7.58
71640;BMP280;60912;48.968;10.124;2023-12-14T04:04:11;95729.66;;;7.66
71640;BMP280;60912;48.968;10.124;2023-12-14T04:06:36;95728.81;;;7.72
71640;BMP280;60912;48.968;10.124;2023-12-14T04:09:01;95736.63;;;7.67
71640;BMP280;60912;48.968;10.124;2023-12-14T04:11:27;95744.13;;;7.67
71640;BMP280;60912;48.968;10.124;2023-12-14T04:13:52;95747.59;;;7.67
71640;BMP280;60912;48.968;10.124;2023-12-14T04:16:21;95751.28;;;7.70
71640;BMP280;60912;48.968;10.124;2023-12-14T04:18:48;95760.03;;;7.68
71640;BMP280;60912;48.968;10.124;2023-12-14T04:21:13;95765.50;;;7.68
71640;BMP280;60912;48.968;10.124;2023-12-14T04:23:38;95760.22;;;7.71
71640;BMP280;60912;48.968;10.124;2023-12-14T04:26:04;95773.59;;;7.74
71640;BMP280;60912;48.968;10.124;2023-12-14T04:28:29;95775.06;;;7.75
71640;BMP280;60912;48.968;10.124;2023-12-14T04:30:55;95767.38;;;7.74
71640;BMP280;60912;48.968;10.124;2023-12-14T04:33:20;95773.22;;;7.78
71640;BMP280;60912;48.968;10.124;2023-12-14T04:35:46;95777.06;;;7.75
71640;BMP280;60912;48.968;10.124;2023-12-14T04:38:11;95776.13;;;7.72
71640;BMP280;60912;48.968;10.124;2023-12-14T04:40:36;95781.06;;;7.74
71640;BMP280;60912;48.968;10.124;2023-12-14T04:43:01;95785.88;;;7.81
71640;BMP280;60912;48.968;10.124;2023-12-14T04:45:27;95793.75;;;7.84
71640;BMP280;60912;48.968;10.124;2023-12-14T04:47:53;95787.88;;;7.88
71640;BMP280;60912;48.968;10.124;2023-12-14T04:50:18;95788.63;;;7.88
71640;BMP280;60912;48.968;10.124;2023-12-14T04:52:44;95793.94;;;7.86
71640;BMP280;60912;48.968;10.124;2023-12-14T04:55:09;95803.06;;;7.89
71640;BMP280;60912;48.968;10.124;2023-12-14T04:57:35;95796.72;;;7.94
71640;BMP280;60912;48.968;10.124;2023-12-14T05:00:00;95805.16;;;7.96
71640;BMP280;60912;48.968;10.124;2023-12-14T05:02:25;95808.06;;;7.98
71640;BMP280;60912;48.968;10.124;2023-12-14T05:04:51;95814.84;;;7.97
71640;BMP280;60912;48.968;10.124;2023-12-14T05:07:16;95820.91;;;8.03
71640;BMP280;60912;48.968;10.124;2023-12-14T05:09:41;95830.00;;;7.98
71640;BMP280;60912;48.968;10.124;2023-12-14T05:12:07;95842.00;;;7.80
71640;BMP280;60912;48.968;10.124;2023-12-14T05:14:32;95838.91;;;7.55
71640;BMP280;60912;48.968;10.124;2023-12-14T05:16:58;95838.03;;;7.32
71640;BMP280;60912;48.968;10.124;2023-12-14T05:19:23;95839.88;;;7.37
71640;BMP280;60912;48.968;10.124;2023-12-14T05:21:48;95848.44;;;7.33
71640;BMP280;60912;48.968;10.124;2023-12-14T05:24:14;95847.13;;;7.26
71640;BMP280;60912;48.968;10.124;2023-12-14T05:26:40;95844.06;;;7.30
71640;BMP280;60912;48.968;10.124;2023-12-14T05:29:05;95843.78;;;7.41
71640;BMP280;60912;48.968;10.124;2023-12-14T05:31:30;95852.75;;;7.49
71640;BMP280;60912;48.968;10.124;2023-12-14T05:33:56;95853.72;;;7.52
71640;BMP280;60912;48.968;10.124;2023-12-14T05:36:21;95859.97;;;7.60
71640;BMP280;60912;48.968;10.124;2023-12-14T05:38:46;95865.25;;;7.58
71640;BMP280;60912;48.968;10.124;2023-12-14T05:41:12;95874.03;;;7.56
71640;BMP280;60912;48.968;10.124;2023-12-14T05:43:37;95886.06;;;7.53
71640;BMP280;60912;48.968;10.124;2023-12-14T05:46:02;95886.94;;;7.48
71640;BMP280;60912;48.968;10.124;2023-12-14T05:48:29;95891.13;;;7.49
71640;BMP280;60912;48.968;10.124;2023-12-14T05:50:56;95891.13;;;7.49
71640;BMP280;60912;48.968;10.124;2023-12-14T05:53:22;95907.44;;;7.55
71640;BMP280;60912;48.968;10.124;2023-12-14T05:55:47;95908.41;;;7.57
71640;BMP280;60912;48.968;10.124;2023-12-14T05:58:12;95898.03;;;7.63
71640;BMP280;60912;48.968;10.124;2023-12-14T06:00:38;95905.16;;;7.66
71640;BMP280;60912;48.968;10.124;2023-12-14T06:03:05;95909.53;;;7.62
71640;BMP280;60912;48.968;10.124;2023-12-14T06:05:30;95916.41;;;7.55
71640;BMP280;60912;48.968;10.124;2023-12-14T06:07:56;95924.09;;;7.57
71640;BMP280;60912;48.968;10.124;2023-12-14T06:10:21;95932.84;;;7.55
71640;BMP280;60912;48.968;10.124;2023-12-14T06:12:47;95929.53;;;7.49
71640;BMP280;60912;48.968;10.124;2023-12-14T06:15:12;95933.53;;;7.48
71640;BMP280;60912;48.968;10.124;2023-12-14T06:17:37;95948.19;;;7.51
71640;BMP280;60912;48.968;10.124;2023-12-14T06:20:05;95953.59;;;7.43
71640;BMP280;60912;48.968;10.124;2023-12-14T06:22:31;95953.59;;;7.43
71640;BMP280;60912;48.968;10.124;2023-12-14T06:24:57;95961.91;;;7.30
71640;BMP280;60912;48.968;10.124;2023-12-14T06:27:23;95966.00;;;7.23
71640;BMP280;60912;48.968;10.124;2023-12-14T06:29:51;95974.00;;;7.21
71640;BMP280;60912;48.968;10.124;2023-12-14T06:32:17;95973.91;;;7.27
71640;BMP280;60912;48.968;10.124;2023-12-14T06:34:42;95983.81;;;7.30
71640;BMP280;60912;48.968;10.124;2023-12-14T06:37:07;95979.91;;;7.25
71640;BMP280;60912;48.968;10.124;2023-12-14T06:39:33;95985.47;;;7.33
71640;BMP280;60912;48.968;10.124;2023-12-14T06:41:58;95992.63;;;7.36
71640;BMP280;60912;48.968;10.124;2023-12-14T06:44:23;95995.16;;;7.34
71640;BMP280;60912;48.968;10.124;2023-12-14T06:46:51;96003.19;;;7.32
71640;BMP280;60912;48.968;10.124;2023-12-14T06:49:17;95999.41;;;7.22
71640;BMP280;60912;48.968;10.124;2023-12-14T06:51:42;96007.44;;;7.20
71640;BMP280;60912;48.968;10.124;2023-12-14T06:54:07;96012.53;;;7.16
71640;BMP280;60912;48.968;10.124;2023-12-14T06:56:32;96022.06;;;7.22
71640;BMP280;60912;48.968;10.124;2023-12-14T06:58:58;96018.16;;;7.31
71640;BMP280;60912;48.968;10.124;2023-12-14T07:01:23;96025.25;;;7.26
71640;BMP280;60912;48.968;10.124;2023-12-14T07:03:48;96027.25;;;7.26
71640;BMP280;60912;48.968;10.124;2023-12-14T07:06:15;96043.44;;;7.37
71640;BMP280;60912;48.968;10.124;2023-12-14T07:08:41;96043.00;;;7.46
71640;BMP280;60912;48.968;10.124;2023-12-14T07:11:08;96050.34;;;7.51
71640;BMP280;60912;48.968;10.124;2023-12-14T07:13:33;96054.22;;;7.56
71640;BMP280;60912;48.968;10.124;2023-12-14T07:16:02;96061.59;;;7.61
71640;BMP280;60912;48.968;10.124;2023-12-14T07:18:28;96056.84;;;7.61
71640;BMP280;60912;48.968;10.124;2023-12-14T07:20:54;96060.84;;;7.60
71640;BMP280;60912;48.968;10.124;2023-12-14T07:23:19;96060.84;;;7.60
71640;BMP280;60912;48.968;10.124;2023-12-14T07:25:44;96075.38;;;7.68
71640;BMP280;60912;48.968;10.124;2023-12-14T07:28:10;96083.22;;;7.64
71640;BMP280;60912;48.968;10.124;2023-12-14T07:30:35;96090.50;;;7.62
71640;BMP280;60912;48.968;10.124;2023-12-14T07:33:00;96089.34;;;7.57
71640;BMP280;60912;48.968;10.124;2023-12-14T07:35:26;96095.22;;;7.61
71640;BMP280;60912;48.968;10.124;2023-12-14T07:37:51;96094.78;;;7.71
71640;BMP280;60912;48.968;10.124;2023-12-14T07:40:16;96098.59;;;7.67
71640;BMP280;60912;48.968;10.124;2023-12-14T07:42:42;96103.25;;;7.59
71640;BMP280;60912;48.968;10.124;2023-12-14T07:45:07;96112.44;;;7.62
71640;BMP280;60912;48.968;10.124;2023-12-14T07:47:34;96116.13;;;7.64
71640;BMP280;60912;48.968;10.124;2023-12-14T07:50:00;96110.28;;;7.68
71640;BMP280;60912;48.968;10.124;2023-12-14T07:52:25;96123.69;;;7.72
71640;BMP280;60912;48.968;10.124;2023-12-14T07:54:50;96129.75;;;7.78
71640;BMP280;60912;48.968;10.124;2023-12-14T07:57:16;96131.16;;;7.84
71640;BMP280;60912;48.968;10.124;2023-12-14T07:59:41;96129.25;;;8.00
71640;BMP280;60912;48.968;10.124;2023-12-14T08:02:06;96124.59;;;8.08
71640;BMP280;60912;48.968;10.124;2023-12-14T08:04:32;96141.81;;;8.08
71640;BMP280;60912;48.968;10.124;2023-12-14T08:06:58;96139.97;;;8.11
71640;BMP280;60912;48.968;10.124;2023-12-14T08:09:24;96135.16;;;8.04
71640;BMP280;60912;48.968;10.124;2023-12-14T08:11:49;96141.91;;;8.03
71640;BMP280;60912;48.968;10.124;2023-12-14T08:14:17;96144.22;;;7.99
71640;BMP280;60912;48.968;10.124;2023-12-14T08:16:42;96158.16;;;8.01
71640;BMP280;60912;48.968;10.124;2023-12-14T08:19:07;96152.69;;;8.01
71640;BMP280;60912;48.968;10.124;2023-12-14T08:21:33;96154.84;;;7.95
71640;BMP280;60912;48.968;10.124;2023-12-14T08:23:58;96165.59;;;7.93
71640;BMP280;60912;48.968;10.124;2023-12-14T08:26:23;96171.09;;;7.93
71640;BMP280;60912;48.968;10.124;2023-12-14T08:28:49;96168.78;;;7.97
71640;BMP280;60912;48.968;10.124;2023-12-14T08:31:14;96166.41;;;8.01
71640;BMP280;60912;48.968;10.124;2023-12-14T08:33:43;96170.69;;;8.09
71640;BMP280;60912;48.968;10.124;2023-12-14T08:36:08;96174.00;;;8.08
71640;BMP280;60912;48.968;10.124;2023-12-14T08:38:34;96177.00;;;8.18
71640;BMP280;60912;48.968;10.124;2023-12-14T08:40:59;96174.09;;;8.23
71640;BMP280;60912;48.968;10.124;2023-12-14T08:43:25;96186.50;;;8.37
71640;BMP280;60912;48.968;10.124;2023-12-14T08:45:51;96199.09;;;8.53
71640;BMP280;60912;48.968;10.124;2023-12-14T08:48:16;96203.78;;;8.66
71640;BMP280;60912;48.968;10.124;2023-12-14T08:50:42;96207.38;;;8.82
71640;BMP280;60912;48.968;10.124;2023-12-14T08:53:08;96209.72;;;8.78
71640;BMP280;60912;48.968;10.124;2023-12-14T08:55:34;96218.84;;;8.73
71640;BMP280;60912;48.968;10.124;2023-12-14T08:57:59;96219.97;;;8.77
71640;BMP280;60912;48.968;10.124;2023-12-14T09:00:25;96220.69;;;8.70
71640;BMP280;60912;48.968;10.124;2023-12-14T09:02:51;96234.97;;;8.76
71640;BMP280;60912;48.968;10.124;2023-12-14T09:05:17;96229.28;;;8.95
71640;BMP280;60912;48.968;10.124;2023-12-14T09:07:45;96239.06;;;8.83
71640;BMP280;60912;48.968;10.124;2023-12-14T09:10:10;96235.41;;;8.80
71640;BMP280;60912;48.968;10.124;2023-12-14T09:12:36;96247.53;;;8.85
71640;BMP280;60912;48.968;10.124;2023-12-14T09:15:02;96246.72;;;8.77
71640;BMP280;60912;48.968;10.124;2023-12-14T09:17:27;96256.09;;;8.81
71640;BMP280;60912;48.968;10.124;2023-12-14T09:20:00;96264.56;;;8.91
71640;BMP280;60912;48.968;10.124;2023-12-14T09:22:25;96259.63;;;8.89
71640;BMP280;60912;48.968;10.124;2023-12-14T09:24:51;96269.25;;;9.04
71640;BMP280;60912;48.968;10.124;2023-12-14T09:27:17;96274.75;;;9.04
71640;BMP280;60912;48.968;10.124;2023-12-14T09:29:42;96270.75;;;9.05
71640;BMP280;60912;48.968;10.124;2023-12-14T09:32:08;96275.53;;;9.12
71640;BMP280;60912;48.968;10.124;2023-12-14T09:34:34;96287.97;;;9.05
71640;BMP280;60912;48.968;10.124;2023-12-14T09:36:59;96289.56;;;9.01
71640;BMP280;60912;48.968;10.124;2023-12-14T09:39:25;96298.66;;;9.09
71640;BMP280;60912;48.968;10.124;2023-12-14T09:41:50;96295.34;;;9.10
71640;BMP280;60912;48.968;10.124;2023-12-14T09:44:16;96298.25;;;9.12
71640;BMP280;60912;48.968;10.124;2023-12-14T09:46:42;96302.03;;;9.22
71640;BMP280;60912;48.968;10.124;2023-12-14T09:49:15;96304.22;;;9.24
71640;BMP280;60912;48.968;10.124;2023-12-14T09:51:41;96305.66;;;9.17
71640;BMP280;60912;48.968;10.124;2023-12-14T09:54:06;96312.28;;;9.22
71640;BMP280;60912;48.968;10.124;2023-12-14T09:56:31;96309.78;;;9.31
71640;BMP280;60912;48.968;10.124;2023-12-14T09:58:57;96311.53;;;9.50
71640;BMP280;60912;48.968;10.124;2023-12-14T10:01:27;96314.78;;;9.69
71640;BMP280;60912;48.968;10.124;2023-12-14T10:04:12;96322.81;;;9.67
71640;BMP280;60912;48.968;10.124;2023-12-14T10:06:39;96325.75;;;9.61
71640;BMP280;60912;48.968;10.124;2023-12-14T10:09:04;96326.53;;;9.69
71640;BMP280;60912;48.968;10.124;2023-12-14T10:11:34;96333.53;;;9.78
71640;BMP280;60912;48.968;10.124;2023-12-14T10:14:00;96340.28;;;9.69
71640;BMP280;60912;48.968;10.124;2023-12-14T10:16:32;96338.19;;;9.55
71640;BMP280;60912;48.968;10.124;2023-12-14T10:18:58;96342.28;;;9.69
71640;BMP280;60912;48.968;10.124;2023-12-14T10:21:27;96328.63;;;9.84
71640;BMP280;60912;48.968;10.124;2023-12-14T10:23:56;96337.53;;;9.69
71640;BMP280;60912;48.968;10.124;2023-12-14T10:26:23;96333.28;;;9.61
71640;BMP280;60912;48.968;10.124;2023-12-14T10:28:50;96339.53;;;9.69
71640;BMP280;60912;48.968;10.124;2023-12-14T10:31:19;96341.25;;;9.79
71640;BMP280;60912;48.968;10.124;2023-12-14T10:33:46;96332.31;;;9.87
71640;BMP280;60912;48.968;10.124;2023-12-14T10:36:18;96344.94;;;9.82
71640;BMP280;60912;48.968;10.124;2023-12-14T10:38:48;96347.88;;;9.84
71640;BMP280;60912;48.968;10.124;2023-12-14T10:41:13;96352.66;;;9.84
71640;BMP280;60912;48.968;10.124;2023-12-14T10:43:39;96355.53;;;9.78
71640;BMP280;60912;48.968;10.124;2023-12-14T10:46:07;96365.34;;;9.87
71640;BMP280;60912;48.968;10.124;2023-12-14T10:48:35;96358.34;;;9.86
71640;BMP280;60912;48.968;10.124;2023-12-14T10:51:01;96369.19;;;9.91
71640;BMP280;60912;48.968;10.124;2023-12-14T10:53:27;96367.09;;;9.76
71640;BMP280;60912;48.968;10.124;2023-12-14T10:55:53;96375.31;;;9.69
71640;BMP280;60912;48.968;10.124;2023-12-14T10:58:19;96367.78;;;9.69
71640;BMP280;60912;48.968;10.124;2023-12-14T11:00:58;96368.44;;;9.55
71640;BMP280;60912;48.968;10.124;2023-12-14T11:03:24;96371.72;;;9.53
71640;BMP280;60912;48.968;10.124;2023-12-14T11:05:51;96374.56;;;9.68
71640;BMP280;60912;48.968;10.124;2023-12-14T11:08:16;96374.91;;;9.65
71640;BMP280;60912;48.968;10.124;2023-12-14T11:10:52;96374.59;;;9.76
71640;BMP280;60912;48.968;10.124;2023-12-14T11:13:17;96382.41;;;9.93
71640;BMP280;60912;48.968;10.124;2023-12-14T11:15:49;96391.09;;;10.04
71640;BMP280;60912;48.968;10.124;2023-12-14T11:25:51;96392.81;;;9.79
71640;BMP280;60912;48.968;10.124;2023-12-14T11:28:17;96395.25;;;9.90
71640;BMP280;60912;48.968;10.124;2023-12-14T11:30:46;96393.53;;;10.08
71640;BMP280;60912;48.968;10.124;2023-12-14T11:33:12;96401.31;;;10.25
71640;BMP280;60912;48.968;10.124;2023-12-14T11:35:38;96384.66;;;10.45
71640;BMP280;60912;48.968;10.124;2023-12-14T11:38:03;96398.50;;;10.68
71640;BMP280;60912;48.968;10.124;2023-12-14T11:40:36;96394.13;;;10.73
71640;BMP280;60912;48.968;10.124;2023-12-14T11:43:02;96404.00;;;10.68
71640;BMP280;60912;48.968;10.124;2023-12-14T11:45:38;96404.38;;;10.64
71640;BMP280;60912;48.968;10.124;2023-12-14T11:48:06;96406.63;;;10.81
71640;BMP280;60912;48.968;10.124;2023-12-14T11:50:34;96408.66;;;10.88
71640;BMP280;60912;48.968;10.124;2023-12-14T11:53:00;96419.88;;;10.98
71640;BMP280;60912;48.968;10.124;2023-12-14T11:55:27;96417.88;;;10.98
71640;BMP280;60912;48.968;10.124;2023-12-14T11:57:53;96416.38;;;10.90
71640;BMP280;60912;48.968;10.124;2023-12-14T12:00:23;96415.06;;;10.83
71640;BMP280;60912;48.968;10.124;2023-12-14T12:02:50;96418.19;;;10.80
71640;BMP280;60912;48.968;10.124;2023-12-14T12:05:15;96420.56;;;10.76
71640;BMP280;60912;48.968;10.124;2023-12-14T12:07:47;96416.88;;;10.65
71640;BMP280;60912;48.968;10.124;2023-12-14T12:10:12;96417.25;;;10.70
71640;BMP280;60912;48.968;10.124;2023-12-14T12:12:38;96413.19;;;10.63
71640;BMP280;60912;48.968;10.124;2023-12-14T12:15:04;96420.91;;;10.64
71640;BMP280;60912;48.968;10.124;2023-12-14T12:17:29;96421.50;;;10.78
71640;BMP280;60912;48.968;10.124;2023-12-14T12:19:57;96428.69;;;10.81
71640;BMP280;60912;48.968;10.124;2023-12-14T12:22:22;96431.44;;;10.81
71640;BMP280;60912;48.968;10.124;2023-12-14T12:24:48;96430.72;;;10.88
71640;BMP280;60912;48.968;10.124;2023-12-14T12:27:13;96428.31;;;10.92
71640;BMP280;60912;48.968;10.124;2023-12-14T12:29:39;96435.13;;;10.91
71640;BMP280;60912;48.968;10.124;2023-12-14T12:32:04;96435.06;;;10.76
71640;BMP280;60912;48.968;10.124;2023-12-14T12:34:29;96435.59;;;10.59
71640;BMP280;60912;48.968;10.124;2023-12-14T12:36:55;96430.63;;;10.58
71640;BMP280;60912;48.968;10.124;2023-12-14T12:39:22;96445.84;;;10.51
71640;BMP280;60912;48.968;10.124;2023-12-14T12:41:48;96449.88;;;10.50
71640;BMP280;60912;48.968;10.124;2023-12-14T12:44:13;96442.47;;;10.38
71640;BMP280;60912;48.968;10.124;2023-12-14T12:46:38;96449.63;;;10.33
71640;BMP280;60912;48.968;10.124;2023-12-14T12:49:05;96447.22;;;10.30
71640;BMP280;60912;48.968;10.124;2023-12-14T12:51:31;96454.06;;;10.36
71640;BMP280;60912;48.968;10.124;2023-12-14T12:53:58;96451.31;;;10.36
71640;BMP280;60912;48.968;10.124;2023-12-14T12:56:26;96440.22;;;10.29
71640;BMP280;60912;48.968;10.124;2023-12-14T12:58:53;96455.69;;;10.32
71640;BMP280;60912;48.968;10.124;2023-12-14T13:01:22;96452.72;;;10.30
71640;BMP280;60912;48.968;10.124;2023-12-14T13:03:52;96452.31;;;10.26
71640;BMP280;60912;48.968;10.124;2023-12-14T13:06:18;96453.81;;;10.27
71640;BMP280;60912;48.968;10.124;2023-12-14T13:08:43;96458.56;;;10.26
71640;BMP280;60912;48.968;10.124;2023-12-14T13:11:08;96468.81;;;10.18
71640;BMP280;60912;48.968;10.124;2023-12-14T13:13:33;96469.59;;;9.69
71640;BMP280;60912;48.968;10.124;2023-12-14T13:15:59;96471.00;;;9.63
71640;BMP280;60912;48.968;10.124;2023-12-14T13:18:24;96477.19;;;9.56
71640;BMP280;60912;48.968;10.124;2023-12-14T13:20:49;96470.41;;;9.57
71640;BMP280;60912;48.968;10.124;2023-12-14T13:23:15;96473.16;;;9.57
71640;BMP280;60912;48.968;10.124;2023-12-14T13:25:40;96484.41;;;9.66
71640;BMP280;60912;48.968;10.124;2023-12-14T13:28:05;96477.91;;;9.56
71640;BMP280;60912;48.968;10.124;2023-12-14T13:30:31;96490.31;;;9.50
71640;BMP280;60912;48.968;10.124;2023-12-14T13:32:56;96490.75;;;9.54
71640;BMP280;60912;48.968;10.124;2023-12-14T13:35:22;96494.50;;;9.64
71640;BMP280;60912;48.968;10.124;2023-12-14T13:37:49;96507.59;;;9.71
71640;BMP280;60912;48.968;10.124;2023-12-14T13:40:15;96509.25;;;9.74
71640;BMP280;60912;48.968;10.124;2023-12-14T13:42:42;96519.31;;;9.51
71640;BMP280;60912;48.968;10.124;2023-12-14T13:45:08;96520.59;;;9.50
71640;BMP280;60912;48.968;10.124;2023-12-14T13:47:33;96509.75;;;9.44
71640;BMP280;60912;48.968;10.124;2023-12-14T13:49:58;96522.81;;;9.51
71640;BMP280;60912;48.968;10.124;2023-12-14T13:52:24;96522.38;;;9.60
71640;BMP280;60912;48.968;10.124;2023-12-14T13:54:49;96529.34;;;9.61
71640;BMP280;60912;48.968;10.124;2023-12-14T13:57:14;96534.69;;;9.67
71640;BMP280;60912;48.968;10.124;2023-12-14T13:59:40;96539.34;;;9.72
71640;BMP280;60912;48.968;10.124;2023-12-14T14:02:05;96551.00;;;9.65
71640;BMP280;60912;48.968;10.124;2023-12-14T14:04:30;96550.00;;;9.55
71640;BMP280;60912;48.968;10.124;2023-12-14T14:06:56;96551.75;;;9.45